sensor_id;sensor_type;location;lat;lon;timestamp;P1;durP1;ratioP1;P2;durP2;ratioP2
74957;SDS011;63741;42.624;26.276;2023-07-13T00:00:11;18.92;;;7.80;;
74957;SDS011;63741;42.624;26.276;2023-07-13T00:02:42;13.82;;;7.20;;
74957;SDS011;63741;42.624;26.276;2023-07-13T00:05:09;12.70;;;7.10;;
74957;SDS011;63741;42.624;26.276;2023-07-13T00:07:36;15.25;;;8.32;;
74957;SDS011;63741;42.624;26.276;2023-07-13T00:10:04;13.68;;;7.13;;
74957;SDS011;63741;42.624;26.276;2023-07-13T00:12:33;22.13;;;7.60;;
74957;SDS011;63741;42.624;26.276;2023-07-13T00:15:04;14.18;;;7.68;;
74957;SDS011;63741;42.624;26.276;2023-07-13T00:17:43;14.25;;;7.15;;
74957;SDS011;63741;42.624;26.276;2023-07-13T00:20:13;10.48;;;6.88;;
74957;SDS011;63741;42.624;26.276;2023-07-13T00:22:40;11.95;;;6.35;;
74957;SDS011;63741;42.624;26.276;2023-07-13T00:25:10;13.07;;;6.93;;
74957;SDS011;63741;42.624;26.276;2023-07-13T00:27:37;11.55;;;7.28;;
74957;SDS011;63741;42.624;26.276;2023-07-13T00:30:05;12.70;;;7.25;;
74957;SDS011;63741;42.624;26.276;2023-07-13T00:32:33;14.98;;;6.88;;
74957;SDS011;63741;42.624;26.276;2023-07-13T00:35:00;10.70;;;6.47;;
74957;SDS011;63741;42.624;26.276;2023-07-13T00:37:27;10.95;;;6.90;;
74957;SDS011;63741;42.624;26.276;2023-07-13T00:39:56;10.63;;;7.15;;
74957;SDS011;63741;42.624;26.276;2023-07-13T00:42:23;67.63;;;9.60;;
74957;SDS011;63741;42.624;26.276;2023-07-13T00:45:04;16.10;;;6.93;;
74957;SDS011;63741;42.624;26.276;2023-07-13T00:47:34;12.88;;;6.45;;
74957;SDS011;63741;42.624;26.276;2023-07-13T00:50:01;9.77;;;6.95;;
74957;SDS011;63741;42.624;26.276;2023-07-13T00:52:30;11.15;;;6.88;;
74957;SDS011;63741;42.624;26.276;2023-07-13T00:54:58;9.77;;;7.22;;
74957;SDS011;63741;42.624;26.276;2023-07-13T00:57:26;14.95;;;7.25;;
74957;SDS011;63741;42.624;26.276;2023-07-13T00:59:54;13.25;;;6.82;;
74957;SDS011;63741;42.624;26.276;2023-07-13T01:02:24;18.17;;;7.65;;
74957;SDS011;63741;42.624;26.276;2023-07-13T01:04:52;10.20;;;6.93;;
74957;SDS011;63741;42.624;26.276;2023-07-13T01:07:19;9.57;;;6.80;;
74957;SDS011;63741;42.624;26.276;2023-07-13T01:09:46;17.88;;;7.93;;
74957;SDS011;63741;42.624;26.276;2023-07-13T01:12:13;14.23;;;7.55;;
74957;SDS011;63741;42.624;26.276;2023-07-13T01:14:40;14.02;;;7.47;;
74957;SDS011;63741;42.624;26.276;2023-07-13T01:17:10;14.63;;;7.50;;
74957;SDS011;63741;42.624;26.276;2023-07-13T01:19:39;12.23;;;6.95;;
74957;SDS011;63741;42.624;26.276;2023-07-13T01:22:13;11.30;;;7.07;;
74957;SDS011;63741;42.624;26.276;2023-07-13T01:24:45;15.75;;;7.55;;
74957;SDS011;63741;42.624;26.276;2023-07-13T01:27:15;14.88;;;7.85;;
74957;SDS011;63741;42.624;26.276;2023-07-13T01:29:45;13.63;;;7.55;;
74957;SDS011;63741;42.624;26.276;2023-07-13T01:32:15;13.60;;;7.25;;
74957;SDS011;63741;42.624;26.276;2023-07-13T01:34:53;12.32;;;7.13;;
74957;SDS011;63741;42.624;26.276;2023-07-13T01:37:23;12.40;;;7.60;;
74957;SDS011;63741;42.624;26.276;2023-07-13T01:39:52;11.50;;;7.18;;
74957;SDS011;63741;42.624;26.276;2023-07-13T01:42:19;12.00;;;7.70;;
74957;SDS011;63741;42.624;26.276;2023-07-13T01:44:47;9.38;;;7.20;;
74957;SDS011;63741;42.624;26.276;2023-07-13T01:47:14;11.20;;;7.60;;
74957;SDS011;63741;42.624;26.276;2023-07-13T01:49:41;11.90;;;7.60;;
74957;SDS011;63741;42.624;26.276;2023-07-13T01:52:08;15.10;;;7.60;;
74957;SDS011;63741;42.624;26.276;2023-07-13T01:54:35;16.08;;;7.70;;
74957;SDS011;63741;42.624;26.276;2023-07-13T01:57:02;11.82;;;7.53;;
74957;SDS011;63741;42.624;26.276;2023-07-13T01:59:30;16.38;;;8.00;;
74957;SDS011;63741;42.624;26.276;2023-07-13T02:01:57;12.43;;;7.95;;
74957;SDS011;63741;42.624;26.276;2023-07-13T02:04:24;28.60;;;8.30;;
74957;SDS011;63741;42.624;26.276;2023-07-13T02:06:51;15.07;;;7.95;;
74957;SDS011;63741;42.624;26.276;2023-07-13T02:09:18;11.00;;;7.80;;
74957;SDS011;63741;42.624;26.276;2023-07-13T02:11:45;12.32;;;7.97;;
74957;SDS011;63741;42.624;26.276;2023-07-13T02:14:12;29.00;;;8.70;;
74957;SDS011;63741;42.624;26.276;2023-07-13T02:16:40;17.67;;;8.00;;
74957;SDS011;63741;42.624;26.276;2023-07-13T02:19:07;13.95;;;8.02;;
74957;SDS011;63741;42.624;26.276;2023-07-13T02:21:35;12.82;;;7.90;;
74957;SDS011;63741;42.624;26.276;2023-07-13T02:24:02;27.70;;;8.57;;
74957;SDS011;63741;42.624;26.276;2023-07-13T02:26:29;13.48;;;8.25;;
74957;SDS011;63741;42.624;26.276;2023-07-13T02:28:56;13.90;;;8.20;;
74957;SDS011;63741;42.624;26.276;2023-07-13T02:31:23;13.45;;;7.72;;
74957;SDS011;63741;42.624;26.276;2023-07-13T02:33:52;13.80;;;8.52;;
74957;SDS011;63741;42.624;26.276;2023-07-13T02:36:19;12.38;;;8.23;;
74957;SDS011;63741;42.624;26.276;2023-07-13T02:38:49;13.90;;;8.15;;
74957;SDS011;63741;42.624;26.276;2023-07-13T02:41:16;12.65;;;8.30;;
74957;SDS011;63741;42.624;26.276;2023-07-13T02:43:44;30.58;;;9.07;;
74957;SDS011;63741;42.624;26.276;2023-07-13T02:46:11;33.60;;;8.63;;
74957;SDS011;63741;42.624;26.276;2023-07-13T02:48:38;14.68;;;8.70;;
74957;SDS011;63741;42.624;26.276;2023-07-13T02:51:06;14.63;;;8.20;;
74957;SDS011;63741;42.624;26.276;2023-07-13T02:53:34;14.27;;;8.43;;
74957;SDS011;63741;42.624;26.276;2023-07-13T02:56:03;14.90;;;8.55;;
74957;SDS011;63741;42.624;26.276;2023-07-13T02:58:31;27.73;;;9.05;;
74957;SDS011;63741;42.624;26.276;2023-07-13T03:00:58;26.02;;;8.85;;
74957;SDS011;63741;42.624;26.276;2023-07-13T03:03:26;31.85;;;9.43;;
74957;SDS011;63741;42.624;26.276;2023-07-13T03:05:58;106.07;;;13.15;;
74957;SDS011;63741;42.624;26.276;2023-07-13T03:08:31;47.40;;;10.77;;
74957;SDS011;63741;42.624;26.276;2023-07-13T03:11:02;42.08;;;9.38;;
74957;SDS011;63741;42.624;26.276;2023-07-13T03:13:34;23.85;;;9.30;;
74957;SDS011;63741;42.624;26.276;2023-07-13T03:16:03;33.03;;;9.77;;
74957;SDS011;63741;42.624;26.276;2023-07-13T03:18:33;34.85;;;10.40;;
74957;SDS011;63741;42.624;26.276;2023-07-13T03:21:03;50.05;;;11.15;;
74957;SDS011;63741;42.624;26.276;2023-07-13T03:23:31;63.95;;;11.40;;
74957;SDS011;63741;42.624;26.276;2023-07-13T03:26:03;21.52;;;9.75;;
74957;SDS011;63741;42.624;26.276;2023-07-13T03:28:42;83.65;;;12.20;;
74957;SDS011;63741;42.624;26.276;2023-07-13T03:31:18;54.05;;;11.30;;
74957;SDS011;63741;42.624;26.276;2023-07-13T03:33:47;25.73;;;9.80;;
74957;SDS011;63741;42.624;26.276;2023-07-13T03:36:20;24.88;;;9.77;;
74957;SDS011;63741;42.624;26.276;2023-07-13T03:38:55;13.05;;;8.68;;
74957;SDS011;63741;42.624;26.276;2023-07-13T03:41:32;35.15;;;9.90;;
74957;SDS011;63741;42.624;26.276;2023-07-13T03:43:59;30.02;;;9.27;;
74957;SDS011;63741;42.624;26.276;2023-07-13T03:46:26;16.48;;;8.88;;
74957;SDS011;63741;42.624;26.276;2023-07-13T03:48:53;21.10;;;8.52;;
74957;SDS011;63741;42.624;26.276;2023-07-13T03:51:21;22.17;;;9.00;;
74957;SDS011;63741;42.624;26.276;2023-07-13T03:53:48;20.45;;;9.10;;
74957;SDS011;63741;42.624;26.276;2023-07-13T03:56:18;30.08;;;9.38;;
74957;SDS011;63741;42.624;26.276;2023-07-13T03:58:47;20.42;;;9.35;;
74957;SDS011;63741;42.624;26.276;2023-07-13T04:01:20;14.88;;;8.25;;
74957;SDS011;63741;42.624;26.276;2023-07-13T04:03:48;15.70;;;8.52;;
74957;SDS011;63741;42.624;26.276;2023-07-13T04:06:27;32.90;;;9.80;;
74957;SDS011;63741;42.624;26.276;2023-07-13T04:08:56;25.17;;;8.80;;
74957;SDS011;63741;42.624;26.276;2023-07-13T04:11:26;24.88;;;9.52;;
74957;SDS011;63741;42.624;26.276;2023-07-13T04:13:55;34.58;;;10.98;;
74957;SDS011;63741;42.624;26.276;2023-07-13T04:16:22;99.15;;;13.55;;
74957;SDS011;63741;42.624;26.276;2023-07-13T04:18:49;27.70;;;10.20;;
74957;SDS011;63741;42.624;26.276;2023-07-13T04:21:21;24.95;;;9.63;;
74957;SDS011;63741;42.624;26.276;2023-07-13T04:23:48;77.28;;;13.13;;
74957;SDS011;63741;42.624;26.276;2023-07-13T04:26:15;22.23;;;9.48;;
74957;SDS011;63741;42.624;26.276;2023-07-13T04:28:42;97.22;;;12.27;;
74957;SDS011;63741;42.624;26.276;2023-07-13T04:31:09;21.23;;;10.02;;
74957;SDS011;63741;42.624;26.276;2023-07-13T04:33:37;23.63;;;9.75;;
74957;SDS011;63741;42.624;26.276;2023-07-13T04:36:04;46.55;;;11.43;;
74957;SDS011;63741;42.624;26.276;2023-07-13T04:38:31;30.67;;;10.70;;
74957;SDS011;63741;42.624;26.276;2023-07-13T04:41:00;22.60;;;9.77;;
74957;SDS011;63741;42.624;26.276;2023-07-13T04:43:28;17.65;;;10.20;;
74957;SDS011;63741;42.624;26.276;2023-07-13T04:45:56;25.77;;;10.98;;
74957;SDS011;63741;42.624;26.276;2023-07-13T04:48:23;24.30;;;9.93;;
74957;SDS011;63741;42.624;26.276;2023-07-13T04:50:54;40.58;;;10.43;;
74957;SDS011;63741;42.624;26.276;2023-07-13T04:53:23;23.90;;;10.13;;
74957;SDS011;63741;42.624;26.276;2023-07-13T04:55:50;13.90;;;9.73;;
74957;SDS011;63741;42.624;26.276;2023-07-13T04:58:17;37.47;;;11.10;;
74957;SDS011;63741;42.624;26.276;2023-07-13T05:00:44;35.10;;;9.82;;
74957;SDS011;63741;42.624;26.276;2023-07-13T05:03:12;31.55;;;10.50;;
74957;SDS011;63741;42.624;26.276;2023-07-13T05:05:39;31.70;;;10.23;;
74957;SDS011;63741;42.624;26.276;2023-07-13T05:08:06;22.50;;;9.80;;
74957;SDS011;63741;42.624;26.276;2023-07-13T05:10:34;24.27;;;9.98;;
74957;SDS011;63741;42.624;26.276;2023-07-13T05:13:02;23.17;;;10.32;;
74957;SDS011;63741;42.624;26.276;2023-07-13T05:15:29;24.45;;;10.02;;
74957;SDS011;63741;42.624;26.276;2023-07-13T05:17:56;26.02;;;10.48;;
74957;SDS011;63741;42.624;26.276;2023-07-13T05:20:23;14.45;;;10.18;;
74957;SDS011;63741;42.624;26.276;2023-07-13T05:22:50;34.72;;;10.75;;
74957;SDS011;63741;42.624;26.276;2023-07-13T05:25:17;28.52;;;10.70;;
74957;SDS011;63741;42.624;26.276;2023-07-13T05:27:44;34.35;;;9.65;;
74957;SDS011;63741;42.624;26.276;2023-07-13T05:30:12;28.27;;;10.02;;
74957;SDS011;63741;42.624;26.276;2023-07-13T05:32:39;44.92;;;10.75;;
74957;SDS011;63741;42.624;26.276;2023-07-13T05:35:06;26.98;;;10.70;;
74957;SDS011;63741;42.624;26.276;2023-07-13T05:37:34;38.70;;;11.50;;
74957;SDS011;63741;42.624;26.276;2023-07-13T05:40:01;34.28;;;10.95;;
74957;SDS011;63741;42.624;26.276;2023-07-13T05:42:28;18.25;;;9.45;;
74957;SDS011;63741;42.624;26.276;2023-07-13T05:44:57;36.35;;;11.15;;
74957;SDS011;63741;42.624;26.276;2023-07-13T05:47:24;21.60;;;11.07;;
74957;SDS011;63741;42.624;26.276;2023-07-13T05:49:51;18.52;;;10.45;;
74957;SDS011;63741;42.624;26.276;2023-07-13T05:52:18;20.58;;;9.80;;
74957;SDS011;63741;42.624;26.276;2023-07-13T05:54:45;22.65;;;10.52;;
74957;SDS011;63741;42.624;26.276;2023-07-13T05:57:12;18.42;;;9.32;;
74957;SDS011;63741;42.624;26.276;2023-07-13T05:59:39;36.47;;;9.98;;
74957;SDS011;63741;42.624;26.276;2023-07-13T06:02:07;23.27;;;8.75;;
74957;SDS011;63741;42.624;26.276;2023-07-13T06:04:36;22.02;;;9.70;;
74957;SDS011;63741;42.624;26.276;2023-07-13T06:07:03;115.93;;;14.57;;
74957;SDS011;63741;42.624;26.276;2023-07-13T06:09:30;53.22;;;11.50;;
74957;SDS011;63741;42.624;26.276;2023-07-13T06:11:57;30.63;;;9.63;;
74957;SDS011;63741;42.624;26.276;2023-07-13T06:14:24;23.35;;;9.70;;
74957;SDS011;63741;42.624;26.276;2023-07-13T06:16:51;29.83;;;10.25;;
74957;SDS011;63741;42.624;26.276;2023-07-13T06:19:18;47.15;;;11.50;;
74957;SDS011;63741;42.624;26.276;2023-07-13T06:21:45;51.78;;;11.18;;
74957;SDS011;63741;42.624;26.276;2023-07-13T06:24:12;28.17;;;9.95;;
74957;SDS011;63741;42.624;26.276;2023-07-13T06:26:39;17.17;;;9.70;;
74957;SDS011;63741;42.624;26.276;2023-07-13T06:29:06;24.17;;;9.82;;
74957;SDS011;63741;42.624;26.276;2023-07-13T06:31:34;24.83;;;10.95;;
74957;SDS011;63741;42.624;26.276;2023-07-13T06:34:01;32.70;;;11.88;;
74957;SDS011;63741;42.624;26.276;2023-07-13T06:36:29;20.25;;;11.27;;
74957;SDS011;63741;42.624;26.276;2023-07-13T06:38:56;25.50;;;10.38;;
74957;SDS011;63741;42.624;26.276;2023-07-13T06:41:22;29.92;;;10.77;;
74957;SDS011;63741;42.624;26.276;2023-07-13T06:43:52;21.38;;;10.30;;
74957;SDS011;63741;42.624;26.276;2023-07-13T06:46:21;142.55;;;16.38;;
74957;SDS011;63741;42.624;26.276;2023-07-13T06:48:49;19.90;;;10.18;;
74957;SDS011;63741;42.624;26.276;2023-07-13T06:51:16;29.27;;;11.30;;
74957;SDS011;63741;42.624;26.276;2023-07-13T06:53:43;18.58;;;10.05;;
74957;SDS011;63741;42.624;26.276;2023-07-13T06:56:10;47.05;;;11.77;;
74957;SDS011;63741;42.624;26.276;2023-07-13T06:58:37;18.23;;;9.80;;
74957;SDS011;63741;42.624;26.276;2023-07-13T07:01:04;61.88;;;12.57;;
74957;SDS011;63741;42.624;26.276;2023-07-13T07:03:34;42.20;;;11.18;;
74957;SDS011;63741;42.624;26.276;2023-07-13T07:06:17;71.68;;;11.75;;
74957;SDS011;63741;42.624;26.276;2023-07-13T07:08:46;290.23;;;22.25;;
74957;SDS011;63741;42.624;26.276;2023-07-13T07:11:14;47.83;;;12.68;;
74957;SDS011;63741;42.624;26.276;2023-07-13T07:13:43;29.60;;;9.55;;
74957;SDS011;63741;42.624;26.276;2023-07-13T07:16:11;30.25;;;10.70;;
74957;SDS011;63741;42.624;26.276;2023-07-13T07:18:38;29.00;;;9.68;;
74957;SDS011;63741;42.624;26.276;2023-07-13T07:21:05;17.38;;;9.77;;
74957;SDS011;63741;42.624;26.276;2023-07-13T07:23:32;21.20;;;11.40;;
74957;SDS011;63741;42.624;26.276;2023-07-13T07:25:59;29.83;;;10.07;;
74957;SDS011;63741;42.624;26.276;2023-07-13T07:28:26;14.85;;;9.63;;
74957;SDS011;63741;42.624;26.276;2023-07-13T07:31:12;268.50;;;24.67;;
74957;SDS011;63741;42.624;26.276;2023-07-13T07:33:42;30.75;;;11.80;;
74957;SDS011;63741;42.624;26.276;2023-07-13T07:36:09;28.35;;;13.73;;
74957;SDS011;63741;42.624;26.276;2023-07-13T07:38:39;58.88;;;15.02;;
74957;SDS011;63741;42.624;26.276;2023-07-13T07:41:06;34.80;;;10.48;;
74957;SDS011;63741;42.624;26.276;2023-07-13T07:43:36;145.25;;;15.10;;
74957;SDS011;63741;42.624;26.276;2023-07-13T07:46:03;25.23;;;10.27;;
74957;SDS011;63741;42.624;26.276;2023-07-13T07:48:33;21.63;;;9.77;;
74957;SDS011;63741;42.624;26.276;2023-07-13T07:51:00;139.43;;;15.30;;
74957;SDS011;63741;42.624;26.276;2023-07-13T07:53:27;22.60;;;9.35;;
74957;SDS011;63741;42.624;26.276;2023-07-13T07:55:56;21.50;;;9.90;;
74957;SDS011;63741;42.624;26.276;2023-07-13T07:58:43;15.98;;;9.13;;
74957;SDS011;63741;42.624;26.276;2023-07-13T08:01:13;20.48;;;9.30;;
74957;SDS011;63741;42.624;26.276;2023-07-13T08:03:42;78.65;;;13.18;;
74957;SDS011;63741;42.624;26.276;2023-07-13T08:06:12;324.48;;;24.25;;
74957;SDS011;63741;42.624;26.276;2023-07-13T08:09:00;13.75;;;8.98;;
74957;SDS011;63741;42.624;26.276;2023-07-13T08:11:28;21.27;;;9.15;;
74957;SDS011;63741;42.624;26.276;2023-07-13T08:13:57;29.55;;;9.90;;
74957;SDS011;63741;42.624;26.276;2023-07-13T08:16:24;30.13;;;9.13;;
74957;SDS011;63741;42.624;26.276;2023-07-13T08:18:53;37.17;;;9.95;;
74957;SDS011;63741;42.624;26.276;2023-07-13T08:21:20;20.98;;;9.73;;
74957;SDS011;63741;42.624;26.276;2023-07-13T08:23:47;17.50;;;9.88;;
74957;SDS011;63741;42.624;26.276;2023-07-13T08:26:14;147.23;;;15.80;;
74957;SDS011;63741;42.624;26.276;2023-07-13T08:28:41;111.15;;;15.45;;
74957;SDS011;63741;42.624;26.276;2023-07-13T08:31:08;20.42;;;8.88;;
74957;SDS011;63741;42.624;26.276;2023-07-13T08:33:37;41.88;;;10.75;;
74957;SDS011;63741;42.624;26.276;2023-07-13T08:36:05;22.33;;;9.10;;
74957;SDS011;63741;42.624;26.276;2023-07-13T08:38:33;17.95;;;9.13;;
74957;SDS011;63741;42.624;26.276;2023-07-13T08:41:01;13.65;;;8.95;;
74957;SDS011;63741;42.624;26.276;2023-07-13T08:43:36;15.98;;;10.20;;
74957;SDS011;63741;42.624;26.276;2023-07-13T08:46:23;25.70;;;9.32;;
74957;SDS011;63741;42.624;26.276;2023-07-13T08:48:59;43.03;;;10.88;;
74957;SDS011;63741;42.624;26.276;2023-07-13T08:54:30;14.95;;;8.88;;
74957;SDS011;63741;42.624;26.276;2023-07-13T08:57:02;12.73;;;8.80;;
74957;SDS011;63741;42.624;26.276;2023-07-13T08:59:37;13.90;;;8.82;;
74957;SDS011;63741;42.624;26.276;2023-07-13T09:05:02;21.73;;;9.20;;
74957;SDS011;63741;42.624;26.276;2023-07-13T09:10:31;16.48;;;8.68;;
74957;SDS011;63741;42.624;26.276;2023-07-13T09:15:49;13.10;;;8.15;;
74957;SDS011;63741;42.624;26.276;2023-07-13T09:23:24;20.35;;;7.90;;
74957;SDS011;63741;42.624;26.276;2023-07-13T09:26:00;14.10;;;7.60;;
74957;SDS011;63741;42.624;26.276;2023-07-13T09:28:37;16.58;;;7.47;;
74957;SDS011;63741;42.624;26.276;2023-07-13T09:33:45;17.10;;;7.35;;
74957;SDS011;63741;42.624;26.276;2023-07-13T09:36:17;20.05;;;8.00;;
74957;SDS011;63741;42.624;26.276;2023-07-13T09:41:40;13.25;;;6.65;;
74957;SDS011;63741;42.624;26.276;2023-07-13T09:44:17;16.45;;;7.28;;
74957;SDS011;63741;42.624;26.276;2023-07-13T09:46:55;14.57;;;7.03;;
74957;SDS011;63741;42.624;26.276;2023-07-13T09:49:25;16.40;;;6.57;;
74957;SDS011;63741;42.624;26.276;2023-07-13T09:54:28;20.30;;;6.55;;
74957;SDS011;63741;42.624;26.276;2023-07-13T09:56:56;10.30;;;6.28;;
74957;SDS011;63741;42.624;26.276;2023-07-13T09:59:27;66.72;;;10.15;;
74957;SDS011;63741;42.624;26.276;2023-07-13T10:01:57;10.80;;;6.18;;
74957;SDS011;63741;42.624;26.276;2023-07-13T10:04:29;12.95;;;6.45;;
74957;SDS011;63741;42.624;26.276;2023-07-13T10:07:06;19.92;;;6.50;;
74957;SDS011;63741;42.624;26.276;2023-07-13T10:09:54;18.65;;;6.60;;
74957;SDS011;63741;42.624;26.276;2023-07-13T10:12:23;23.83;;;7.10;;
74957;SDS011;63741;42.624;26.276;2023-07-13T10:14:52;9.77;;;6.22;;
74957;SDS011;63741;42.624;26.276;2023-07-13T10:17:42;10.02;;;6.22;;
74957;SDS011;63741;42.624;26.276;2023-07-13T10:20:11;13.18;;;6.18;;
74957;SDS011;63741;42.624;26.276;2023-07-13T10:22:44;53.28;;;8.57;;
74957;SDS011;63741;42.624;26.276;2023-07-13T10:25:45;18.25;;;6.47;;
74957;SDS011;63741;42.624;26.276;2023-07-13T10:30:49;24.13;;;7.00;;
74957;SDS011;63741;42.624;26.276;2023-07-13T10:33:20;11.20;;;6.00;;
74957;SDS011;63741;42.624;26.276;2023-07-13T10:35:47;11.82;;;5.82;;
74957;SDS011;63741;42.624;26.276;2023-07-13T10:38:19;10.88;;;6.00;;
74957;SDS011;63741;42.624;26.276;2023-07-13T10:43:34;20.13;;;6.97;;
74957;SDS011;63741;42.624;26.276;2023-07-13T10:46:10;19.42;;;6.30;;
74957;SDS011;63741;42.624;26.276;2023-07-13T10:48:40;16.40;;;6.43;;
74957;SDS011;63741;42.624;26.276;2023-07-13T10:51:12;13.70;;;6.53;;
74957;SDS011;63741;42.624;26.276;2023-07-13T10:53:41;18.67;;;6.68;;
74957;SDS011;63741;42.624;26.276;2023-07-13T10:58:48;33.15;;;6.80;;
74957;SDS011;63741;42.624;26.276;2023-07-13T11:04:25;30.10;;;6.40;;
74957;SDS011;63741;42.624;26.276;2023-07-13T11:06:59;12.35;;;5.57;;
74957;SDS011;63741;42.624;26.276;2023-07-13T11:09:39;79.80;;;8.45;;
74957;SDS011;63741;42.624;26.276;2023-07-13T11:12:08;35.85;;;6.65;;
74957;SDS011;63741;42.624;26.276;2023-07-13T11:15:07;12.60;;;5.93;;
74957;SDS011;63741;42.624;26.276;2023-07-13T11:20:22;30.52;;;5.93;;
74957;SDS011;63741;42.624;26.276;2023-07-13T11:25:39;23.35;;;5.82;;
74957;SDS011;63741;42.624;26.276;2023-07-13T11:38:41;21.80;;;6.30;;
74957;SDS011;63741;42.624;26.276;2023-07-13T11:44:11;12.13;;;5.53;;
74957;SDS011;63741;42.624;26.276;2023-07-13T11:46:45;10.77;;;4.95;;
74957;SDS011;63741;42.624;26.276;2023-07-13T11:49:21;20.58;;;5.78;;
74957;SDS011;63741;42.624;26.276;2023-07-13T11:51:50;11.82;;;4.78;;
74957;SDS011;63741;42.624;26.276;2023-07-13T11:56:56;11.80;;;5.15;;
74957;SDS011;63741;42.624;26.276;2023-07-13T11:59:44;171.77;;;12.10;;
74957;SDS011;63741;42.624;26.276;2023-07-13T12:02:16;12.68;;;4.85;;
74957;SDS011;63741;42.624;26.276;2023-07-13T12:04:50;21.15;;;5.65;;
74957;SDS011;63741;42.624;26.276;2023-07-13T12:07:18;10.13;;;5.15;;
74957;SDS011;63741;42.624;26.276;2023-07-13T12:09:46;11.80;;;4.88;;
74957;SDS011;63741;42.624;26.276;2023-07-13T12:12:14;11.52;;;5.10;;
74957;SDS011;63741;42.624;26.276;2023-07-13T12:17:15;16.65;;;5.15;;
74957;SDS011;63741;42.624;26.276;2023-07-13T12:19:45;11.45;;;4.70;;
74957;SDS011;63741;42.624;26.276;2023-07-13T12:22:14;10.95;;;4.95;;
74957;SDS011;63741;42.624;26.276;2023-07-13T12:24:46;13.70;;;5.28;;
74957;SDS011;63741;42.624;26.276;2023-07-13T12:27:19;10.38;;;4.57;;
74957;SDS011;63741;42.624;26.276;2023-07-13T12:29:58;9.93;;;5.30;;
74957;SDS011;63741;42.624;26.276;2023-07-13T12:32:27;18.75;;;5.32;;
74957;SDS011;63741;42.624;26.276;2023-07-13T12:35:01;22.08;;;5.53;;
74957;SDS011;63741;42.624;26.276;2023-07-13T12:37:47;17.30;;;5.03;;
74957;SDS011;63741;42.624;26.276;2023-07-13T12:40:15;10.75;;;5.30;;
74957;SDS011;63741;42.624;26.276;2023-07-13T12:42:49;10.50;;;5.03;;
74957;SDS011;63741;42.624;26.276;2023-07-13T12:45:23;24.75;;;5.13;;
74957;SDS011;63741;42.624;26.276;2023-07-13T12:50:22;9.85;;;4.82;;
74957;SDS011;63741;42.624;26.276;2023-07-13T12:52:51;18.60;;;5.35;;
74957;SDS011;63741;42.624;26.276;2023-07-13T12:55:21;15.77;;;5.05;;
74957;SDS011;63741;42.624;26.276;2023-07-13T12:57:52;10.65;;;4.60;;
74957;SDS011;63741;42.624;26.276;2023-07-13T13:02:54;14.43;;;4.60;;
74957;SDS011;63741;42.624;26.276;2023-07-13T13:05:44;47.10;;;5.90;;
74957;SDS011;63741;42.624;26.276;2023-07-13T13:08:12;22.48;;;4.90;;
74957;SDS011;63741;42.624;26.276;2023-07-13T13:10:39;14.05;;;4.55;;
74957;SDS011;63741;42.624;26.276;2023-07-13T13:13:06;11.65;;;4.78;;
74957;SDS011;63741;42.624;26.276;2023-07-13T13:15:35;10.80;;;4.35;;
74957;SDS011;63741;42.624;26.276;2023-07-13T13:18:08;6.72;;;4.53;;
74957;SDS011;63741;42.624;26.276;2023-07-13T13:20:44;10.55;;;4.70;;
74957;SDS011;63741;42.624;26.276;2023-07-13T13:23:13;11.32;;;4.32;;
74957;SDS011;63741;42.624;26.276;2023-07-13T13:25:45;13.80;;;4.47;;
74957;SDS011;63741;42.624;26.276;2023-07-13T13:28:17;10.23;;;3.95;;
74957;SDS011;63741;42.624;26.276;2023-07-13T13:30:47;11.52;;;4.50;;
74957;SDS011;63741;42.624;26.276;2023-07-13T13:33:16;11.35;;;4.43;;
74957;SDS011;63741;42.624;26.276;2023-07-13T13:35:44;52.00;;;6.32;;
74957;SDS011;63741;42.624;26.276;2023-07-13T13:38:15;33.13;;;5.35;;
74957;SDS011;63741;42.624;26.276;2023-07-13T13:40:45;13.85;;;4.20;;
74957;SDS011;63741;42.624;26.276;2023-07-13T13:43:16;10.55;;;4.53;;
74957;SDS011;63741;42.624;26.276;2023-07-13T13:45:44;8.57;;;4.50;;
74957;SDS011;63741;42.624;26.276;2023-07-13T13:48:19;10.45;;;4.43;;
74957;SDS011;63741;42.624;26.276;2023-07-13T13:51:06;10.70;;;4.75;;
74957;SDS011;63741;42.624;26.276;2023-07-13T13:53:41;12.35;;;4.45;;
74957;SDS011;63741;42.624;26.276;2023-07-13T13:56:08;9.93;;;4.90;;
74957;SDS011;63741;42.624;26.276;2023-07-13T13:58:35;11.73;;;4.80;;
74957;SDS011;63741;42.624;26.276;2023-07-13T14:01:02;9.77;;;4.70;;
74957;SDS011;63741;42.624;26.276;2023-07-13T14:03:32;28.10;;;5.50;;
74957;SDS011;63741;42.624;26.276;2023-07-13T14:06:03;14.18;;;4.63;;
74957;SDS011;63741;42.624;26.276;2023-07-13T14:08:30;18.95;;;4.75;;
74957;SDS011;63741;42.624;26.276;2023-07-13T14:10:57;11.38;;;4.57;;
74957;SDS011;63741;42.624;26.276;2023-07-13T14:13:30;8.32;;;4.40;;
74957;SDS011;63741;42.624;26.276;2023-07-13T14:16:02;11.05;;;4.57;;
74957;SDS011;63741;42.624;26.276;2023-07-13T14:18:29;20.45;;;4.82;;
74957;SDS011;63741;42.624;26.276;2023-07-13T14:20:56;20.20;;;4.95;;
74957;SDS011;63741;42.624;26.276;2023-07-13T14:23:23;17.38;;;4.90;;
74957;SDS011;63741;42.624;26.276;2023-07-13T14:25:53;23.63;;;5.55;;
74957;SDS011;63741;42.624;26.276;2023-07-13T14:28:21;12.98;;;5.10;;
74957;SDS011;63741;42.624;26.276;2023-07-13T14:30:51;30.38;;;5.55;;
74957;SDS011;63741;42.624;26.276;2023-07-13T14:33:19;12.18;;;4.63;;
74957;SDS011;63741;42.624;26.276;2023-07-13T14:35:46;16.25;;;5.35;;
74957;SDS011;63741;42.624;26.276;2023-07-13T14:38:16;12.05;;;4.75;;
74957;SDS011;63741;42.624;26.276;2023-07-13T14:40:46;11.02;;;5.00;;
74957;SDS011;63741;42.624;26.276;2023-07-13T14:43:13;13.20;;;4.90;;
74957;SDS011;63741;42.624;26.276;2023-07-13T14:45:48;18.27;;;4.90;;
74957;SDS011;63741;42.624;26.276;2023-07-13T14:48:18;9.57;;;4.35;;
74957;SDS011;63741;42.624;26.276;2023-07-13T14:50:58;22.25;;;5.10;;
74957;SDS011;63741;42.624;26.276;2023-07-13T14:53:26;221.73;;;15.95;;
74957;SDS011;63741;42.624;26.276;2023-07-13T14:55:56;20.00;;;4.90;;
74957;SDS011;63741;42.624;26.276;2023-07-13T14:58:23;12.32;;;4.68;;
74957;SDS011;63741;42.624;26.276;2023-07-13T15:00:50;12.45;;;4.78;;
74957;SDS011;63741;42.624;26.276;2023-07-13T15:03:23;22.38;;;5.30;;
74957;SDS011;63741;42.624;26.276;2023-07-13T15:05:51;17.23;;;5.20;;
74957;SDS011;63741;42.624;26.276;2023-07-13T15:08:19;14.38;;;4.70;;
74957;SDS011;63741;42.624;26.276;2023-07-13T15:10:46;11.00;;;4.80;;
74957;SDS011;63741;42.624;26.276;2023-07-13T15:13:15;8.57;;;4.15;;
74957;SDS011;63741;42.624;26.276;2023-07-13T15:15:48;15.32;;;4.95;;
74957;SDS011;63741;42.624;26.276;2023-07-13T15:18:18;12.57;;;4.80;;
74957;SDS011;63741;42.624;26.276;2023-07-13T15:20:48;17.10;;;4.90;;
74957;SDS011;63741;42.624;26.276;2023-07-13T15:23:16;10.05;;;4.65;;
74957;SDS011;63741;42.624;26.276;2023-07-13T15:25:44;17.95;;;4.60;;
74957;SDS011;63741;42.624;26.276;2023-07-13T15:28:12;18.80;;;4.93;;
74957;SDS011;63741;42.624;26.276;2023-07-13T15:30:43;10.57;;;4.47;;
74957;SDS011;63741;42.624;26.276;2023-07-13T15:33:16;12.07;;;4.53;;
74957;SDS011;63741;42.624;26.276;2023-07-13T15:35:48;10.75;;;4.85;;
74957;SDS011;63741;42.624;26.276;2023-07-13T15:38:19;9.63;;;4.50;;